createdAt,value
2019-03-13T00:00:39.425Z,18.2
2019-03-13T00:01:32.448Z,18.2
2019-03-13T00:02:18.110Z,18.2
2019-03-13T00:03:07.444Z,18.2
2019-03-13T00:03:58.533Z,18.3
2019-03-13T00:04:47.524Z,18.3
2019-03-13T00:05:38.673Z,18.3
2019-03-13T00:06:29.180Z,18.4
2019-03-13T00:07:19.215Z,18.4
2019-03-13T00:08:09.657Z,18.5
2019-03-13T00:08:59.327Z,18.5
2019-03-13T00:09:49.962Z,18.6
2019-03-13T00:10:42.005Z,18.6
2019-03-13T00:11:29.592Z,18.6
2019-03-13T00:12:19.379Z,18.6
2019-03-13T00:13:09.924Z,18.8
2019-03-13T00:13:58.877Z,18.8
2019-03-13T00:14:48.975Z,18.9
2019-03-13T00:15:39.942Z,18.6
2019-03-13T00:16:29.606Z,18.4
2019-03-13T00:17:19.689Z,18.3
2019-03-13T00:18:09.467Z,18.3
2019-03-13T00:19:00.069Z,18.3
2019-03-13T00:19:49.871Z,18.2
2019-03-13T00:20:39.401Z,18.1
2019-03-13T00:21:29.799Z,18.1
2019-03-13T00:22:20.139Z,18.2
2019-03-13T00:23:10.802Z,18.1
2019-03-13T00:24:00.399Z,18.1
2019-03-13T00:24:50.647Z,18.2
2019-03-13T00:25:39.831Z,18.3
2019-03-13T00:26:30.095Z,18.2
2019-03-13T00:27:20.736Z,18.2
2019-03-13T00:28:10.546Z,18.2
2019-03-13T00:29:00.767Z,18.2
2019-03-13T00:29:50.259Z,18.1
2019-03-13T00:30:40.613Z,18.1
2019-03-13T00:31:29.939Z,18.1
2019-03-13T00:32:20.776Z,18.1
2019-03-13T00:33:11.229Z,18.1
2019-03-13T00:34:01.678Z,18.3
2019-03-13T00:34:50.928Z,18.3
2019-03-13T00:35:40.718Z,18.3
2019-03-13T00:36:31.106Z,18.4
2019-03-13T00:37:20.841Z,18.4
2019-03-13T00:38:11.241Z,18.4
2019-03-13T00:39:01.190Z,18.4
2019-03-13T00:39:50.751Z,18.5
2019-03-13T00:40:41.457Z,18.6
2019-03-13T00:41:31.084Z,18.6
2019-03-13T00:42:21.458Z,18.6
2019-03-13T00:43:12.190Z,18.6
2019-03-13T00:44:01.363Z,18.6
2019-03-13T00:44:51.681Z,18.6
2019-03-13T00:45:40.965Z,18.6
2019-03-13T00:46:31.740Z,18.6
2019-03-13T00:47:22.088Z,18.6
2019-03-13T00:48:11.445Z,18.8
2019-03-13T00:49:02.313Z,18.8
2019-03-13T00:49:52.795Z,18.8
2019-03-13T00:50:42.337Z,18.9
2019-03-13T00:51:32.217Z,18.9
2019-03-13T00:52:22.559Z,18.9
2019-03-13T00:54:01.788Z,18.5
2019-03-13T00:54:52.050Z,18.4
2019-03-13T00:55:42.240Z,18.3
2019-03-13T00:56:32.737Z,18.3
2019-03-13T00:57:23.064Z,18.3
2019-03-13T00:58:12.915Z,18.2
2019-03-13T00:59:03.479Z,18.2
2019-03-13T00:59:52.138Z,18.1
2019-03-13T01:00:43.391Z,18.1
2019-03-13T01:01:32.902Z,18.1
2019-03-13T01:02:23.989Z,18.2
2019-03-13T01:03:12.972Z,18.3
2019-03-13T01:04:03.289Z,18.2
2019-03-13T01:04:53.087Z,18.1
2019-03-13T01:05:43.411Z,18.1
2019-03-13T01:06:33.757Z,18.1
2019-03-13T01:07:23.244Z,18.1
2019-03-13T01:08:13.852Z,18.1
2019-03-13T01:09:04.112Z,18.1
2019-03-13T01:09:52.167Z,18
2019-03-13T01:10:43.391Z,18.1
2019-03-13T01:11:35.818Z,18.2
2019-03-13T01:12:23.130Z,18.3
2019-03-13T01:13:13.236Z,18.4
2019-03-13T01:14:04.295Z,18.4
2019-03-13T01:14:52.917Z,18.6
2019-03-13T01:15:43.914Z,18.6
2019-03-13T01:16:33.811Z,18.6
2019-03-13T01:17:24.116Z,18.6
2019-03-13T01:18:13.764Z,18.6
2019-03-13T01:19:03.625Z,18.6
2019-03-13T01:19:53.935Z,18.6
2019-03-13T01:20:43.986Z,18.6
2019-03-13T01:21:34.581Z,18.6
2019-03-13T01:22:24.681Z,18.6
2019-03-13T01:23:14.271Z,18.6
2019-03-13T01:24:05.043Z,18.6
2019-03-13T01:24:54.520Z,18.6
2019-03-13T01:25:43.575Z,18.6
2019-03-13T01:26:35.023Z,18.6
2019-03-13T01:27:24.754Z,18.6
2019-03-13T01:29:05.619Z,18.8
2019-03-13T01:29:55.430Z,18.8
2019-03-13T01:30:44.965Z,18.8
2019-03-13T01:31:34.449Z,18.8
2019-03-13T01:32:25.093Z,18.9
2019-03-13T01:33:15.348Z,18.6
2019-03-13T01:34:05.512Z,18.4
2019-03-13T01:34:54.352Z,18.4
2019-03-13T01:35:45.645Z,18.3
2019-03-13T01:36:35.297Z,18.2
2019-03-13T01:37:25.720Z,18.2
2019-03-13T01:38:15.443Z,18.2
2019-03-13T01:39:06.062Z,18.1
2019-03-13T01:39:55.577Z,18.1
2019-03-13T01:40:45.887Z,18
2019-03-13T01:41:36.817Z,18
2019-03-13T01:42:26.665Z,18
2019-03-13T01:43:16.379Z,18.1
2019-03-13T01:44:07.379Z,18.1
2019-03-13T01:44:56.481Z,18.1
2019-03-13T01:45:46.540Z,18.1
2019-03-13T01:46:36.584Z,18.1
2019-03-13T01:47:26.084Z,18
2019-03-13T01:48:17.077Z,18
2019-03-13T01:49:06.314Z,17.9
2019-03-13T01:49:56.299Z,17.9
2019-03-13T01:50:45.237Z,17.9
2019-03-13T01:51:36.964Z,18
2019-03-13T01:52:26.270Z,18.2
2019-03-13T01:53:16.340Z,18.2
2019-03-13T01:54:07.047Z,18.3
2019-03-13T01:54:56.077Z,18.3
2019-03-13T01:55:47.146Z,18.4
2019-03-13T01:56:37.380Z,18.4
2019-03-13T01:57:27.677Z,18.4
2019-03-13T01:58:16.960Z,18.4
2019-03-13T01:59:07.885Z,18.4
2019-03-13T01:59:57.011Z,18.4
2019-03-13T02:00:47.611Z,18.4
2019-03-13T02:01:37.513Z,18.4
2019-03-13T02:02:26.876Z,18.4
2019-03-13T02:03:16.573Z,18.4
2019-03-13T02:04:07.895Z,18.4
2019-03-13T02:04:56.848Z,18.3
2019-03-13T02:05:47.281Z,18.3
2019-03-13T02:06:36.798Z,18.1
2019-03-13T02:07:28.193Z,18.1
2019-03-13T02:08:18.172Z,17.9
2019-03-13T02:09:08.003Z,17.9
2019-03-13T02:09:57.506Z,17.8
2019-03-13T02:10:48.113Z,17.8
2019-03-13T02:11:38.094Z,17.8
2019-03-13T02:12:27.628Z,17.8
2019-03-13T02:13:18.798Z,17.9
2019-03-13T02:14:07.814Z,17.9
2019-03-13T02:14:58.550Z,17.9
2019-03-13T02:15:47.085Z,17.9
2019-03-13T02:16:38.473Z,18
2019-03-13T02:17:28.810Z,18.1
2019-03-13T02:18:18.738Z,18.1
2019-03-13T02:19:07.000Z,18.1
2019-03-13T02:19:59.043Z,18.1
2019-03-13T02:20:48.564Z,18.2
2019-03-13T02:21:38.258Z,18.3
2019-03-13T02:22:28.060Z,18.3
2019-03-13T02:23:18.955Z,18.3
2019-03-13T02:24:08.801Z,18.3
2019-03-13T02:25:03.420Z,18.4
2019-03-13T02:25:48.925Z,18.4
2019-03-13T02:26:38.901Z,18.3
2019-03-13T02:27:29.255Z,18.1
2019-03-13T02:28:19.054Z,17.9
2019-03-13T02:29:09.363Z,17.9
2019-03-13T02:29:59.144Z,17.9
2019-03-13T02:30:49.300Z,17.8
2019-03-13T02:31:40.142Z,17.8
2019-03-13T02:32:29.708Z,17.8
2019-03-13T02:33:20.070Z,17.8
2019-03-13T02:34:09.962Z,17.8
2019-03-13T02:34:59.879Z,17.8
2019-03-13T02:35:50.747Z,17.9
2019-03-13T02:36:39.748Z,18
2019-03-13T02:37:31.075Z,17.9
2019-03-13T02:38:20.313Z,17.9
2019-03-13T02:39:09.926Z,17.9
2019-03-13T02:39:59.472Z,17.9
2019-03-13T02:40:50.342Z,17.9
2019-03-13T02:41:40.407Z,17.8
2019-03-13T02:42:29.097Z,17.8
2019-03-13T02:43:19.352Z,17.8
2019-03-13T02:44:10.402Z,17.8
2019-03-13T02:44:59.976Z,17.9
2019-03-13T02:45:49.919Z,18
2019-03-13T02:46:40.747Z,18.1
2019-03-13T02:47:30.592Z,18.1
2019-03-13T02:48:19.411Z,18.2
2019-03-13T02:49:09.943Z,18.3
2019-03-13T02:49:59.907Z,18.3
2019-03-13T02:50:51.022Z,18.3
2019-03-13T02:51:40.940Z,18.3
2019-03-13T02:52:31.841Z,18.3
2019-03-13T02:53:21.198Z,18.4
2019-03-13T02:54:11.126Z,18.4
2019-03-13T02:55:01.474Z,18.4
2019-03-13T02:55:50.573Z,18.4
2019-03-13T02:56:40.046Z,18.4
2019-03-13T02:57:32.216Z,18.5
2019-03-13T02:58:21.099Z,18.5
2019-03-13T02:59:11.871Z,18.5
2019-03-13T03:00:02.159Z,18.6
2019-03-13T03:00:52.086Z,18.6
2019-03-13T03:02:31.449Z,18.8
2019-03-13T03:03:22.492Z,18.8
2019-03-13T03:04:12.223Z,18.5
2019-03-13T03:07:44.406Z,18.1
2019-03-13T03:08:33.888Z,18.1
2019-03-13T03:09:23.633Z,18.1
2019-03-13T03:10:14.560Z,18
2019-03-13T03:11:03.195Z,18
2019-03-13T03:11:53.990Z,17.9
2019-03-13T03:12:44.385Z,17.9
2019-03-13T03:13:34.258Z,18.1
2019-03-13T03:14:24.533Z,18.1
2019-03-13T03:15:14.191Z,18
2019-03-13T03:16:04.638Z,18
2019-03-13T03:16:54.350Z,17.9
2019-03-13T03:17:45.009Z,17.9
2019-03-13T03:18:33.710Z,17.9
2019-03-13T03:19:24.406Z,17.9
2019-03-13T03:20:13.976Z,17.9
2019-03-13T03:21:04.914Z,17.8
2019-03-13T03:21:54.166Z,17.9
2019-03-13T03:22:44.415Z,18.1
2019-03-13T03:23:34.752Z,18.1
2019-03-13T03:24:24.687Z,18.1
2019-03-13T03:25:15.509Z,18.2
2019-03-13T03:26:05.023Z,18.3
2019-03-13T03:26:55.146Z,18.3
2019-03-13T03:27:44.122Z,18.3
2019-03-13T03:28:35.074Z,18.3
2019-03-13T03:29:24.771Z,18.3
2019-03-13T03:30:15.960Z,18.3
2019-03-13T03:31:05.975Z,18.3
2019-03-13T03:31:55.204Z,18.3
2019-03-13T03:32:46.152Z,18.4
2019-03-13T03:33:36.073Z,18.4
2019-03-13T03:34:26.383Z,18.4
2019-03-13T03:35:15.499Z,18.4
2019-03-13T03:36:05.959Z,18.4
2019-03-13T03:36:55.206Z,18.5
2019-03-13T03:37:45.731Z,18.5
2019-03-13T03:38:36.146Z,18.6
2019-03-13T03:39:25.657Z,18.6
2019-03-13T03:40:16.006Z,18.6
2019-03-13T03:41:05.479Z,18.6
2019-03-13T03:41:56.611Z,18.6
2019-03-13T03:42:45.533Z,18.6
2019-03-13T03:44:26.047Z,18.4
2019-03-13T03:45:16.357Z,18.2
2019-03-13T03:46:06.988Z,18.1
2019-03-13T03:46:56.052Z,18
2019-03-13T03:47:46.239Z,18
2019-03-13T03:48:36.741Z,17.9
2019-03-13T03:49:26.103Z,17.9
2019-03-13T03:50:16.915Z,17.9
2019-03-13T03:51:07.435Z,17.9
2019-03-13T03:51:56.736Z,17.8
2019-03-13T03:52:47.152Z,17.8
2019-03-13T03:53:36.930Z,17.9
2019-03-13T03:54:27.040Z,17.9
2019-03-13T03:55:17.201Z,17.9
2019-03-13T03:56:07.240Z,17.9
2019-03-13T03:56:57.459Z,17.8
2019-03-13T03:57:47.802Z,17.8
2019-03-13T03:58:39.748Z,17.8
2019-03-13T03:59:27.403Z,17.8
2019-03-13T04:00:16.737Z,17.7
2019-03-13T04:01:07.261Z,17.7
2019-03-13T04:01:57.004Z,17.6
2019-03-13T04:02:47.373Z,17.8
2019-03-13T04:03:36.960Z,17.9
2019-03-13T04:04:27.583Z,18
2019-03-13T04:05:18.109Z,18.1
2019-03-13T04:06:07.766Z,18.1
2019-03-13T04:06:57.577Z,18.1
2019-03-13T04:07:48.220Z,18.2
2019-03-13T04:08:42.752Z,18.3
2019-03-13T04:09:28.470Z,18.2
2019-03-13T04:10:17.967Z,18.2
2019-03-13T04:11:08.895Z,18.2
2019-03-13T04:11:58.260Z,18.2
2019-03-13T04:12:48.842Z,18.2
2019-03-13T04:13:38.183Z,18.2
2019-03-13T04:14:29.025Z,18.1
2019-03-13T04:15:18.666Z,18.1
2019-03-13T04:16:09.182Z,18.1
2019-03-13T04:16:58.816Z,17.9
2019-03-13T04:17:48.647Z,17.9
2019-03-13T04:18:37.916Z,17.8
2019-03-13T04:19:28.567Z,17.8
2019-03-13T04:20:18.735Z,17.8
2019-03-13T04:21:09.427Z,17.8
2019-03-13T04:21:58.716Z,17.8
2019-03-13T04:22:49.065Z,17.9
2019-03-13T04:23:39.428Z,17.8
2019-03-13T04:24:29.001Z,17.8
2019-03-13T04:25:34.639Z,17.9
2019-03-13T04:26:13.403Z,17.9
2019-03-13T04:26:59.426Z,18
2019-03-13T04:27:49.635Z,18.1
2019-03-13T04:28:39.717Z,18.1
2019-03-13T04:29:29.283Z,18.2
2019-03-13T04:30:20.316Z,18.2
2019-03-13T04:31:09.984Z,18.3
2019-03-13T04:31:59.673Z,18.3
2019-03-13T04:32:49.586Z,18.3
2019-03-13T04:33:39.692Z,18.3
2019-03-13T04:34:29.600Z,18.4
2019-03-13T04:35:20.420Z,18.4
2019-03-13T04:36:09.711Z,18.2
2019-03-13T04:36:59.716Z,18
2019-03-13T04:37:50.342Z,17.9
2019-03-13T04:38:40.359Z,17.9
2019-03-13T04:39:30.663Z,17.8
2019-03-13T04:40:20.208Z,17.8
2019-03-13T04:41:09.981Z,17.8
2019-03-13T04:42:00.395Z,17.8
2019-03-13T04:42:49.569Z,17.8
2019-03-13T04:43:40.632Z,17.8
2019-03-13T04:44:29.570Z,17.7
2019-03-13T04:45:20.283Z,17.8
2019-03-13T04:46:10.111Z,17.9
2019-03-13T04:47:00.342Z,17.9
2019-03-13T04:47:49.815Z,17.9
2019-03-13T04:48:40.943Z,17.9
2019-03-13T04:49:31.061Z,17.9
2019-03-13T04:50:20.316Z,17.9
2019-03-13T04:51:10.584Z,17.9
2019-03-13T04:52:01.012Z,17.8
2019-03-13T04:52:49.266Z,17.8
2019-03-13T04:53:40.577Z,17.8
2019-03-13T04:54:30.674Z,17.9
2019-03-13T04:55:19.657Z,18.1
2019-03-13T04:56:10.594Z,18.1
2019-03-13T04:56:59.732Z,18.1
2019-03-13T04:57:50.377Z,18.2
2019-03-13T04:58:40.624Z,18.2
2019-03-13T04:59:30.712Z,18.2
2019-03-13T05:00:21.974Z,18.2
2019-03-13T05:01:10.824Z,18.3
2019-03-13T05:02:00.596Z,18.3
2019-03-13T05:02:51.181Z,18.4
2019-03-13T05:03:41.561Z,18.4
2019-03-13T05:04:31.819Z,18.5
2019-03-13T05:05:21.950Z,18.6
2019-03-13T05:06:12.209Z,18.6
2019-03-13T05:07:01.151Z,18.6
2019-03-13T05:07:52.574Z,18.6
2019-03-13T05:08:55.243Z,18.6
2019-03-13T05:12:02.949Z,18.4
2019-03-13T05:12:53.103Z,18.2
2019-03-13T05:13:43.052Z,18.1
2019-03-13T05:14:35.898Z,18
2019-03-13T05:15:22.636Z,17.9
2019-03-13T05:16:11.914Z,17.9
2019-03-13T05:17:02.686Z,17.9
2019-03-13T05:17:52.743Z,17.9
2019-03-13T05:18:42.967Z,17.9
2019-03-13T05:19:33.493Z,17.8
2019-03-13T05:20:23.912Z,17.8
2019-03-13T05:21:12.757Z,17.9
2019-03-13T05:22:02.831Z,17.9
2019-03-13T05:22:53.105Z,17.9
2019-03-13T05:23:43.447Z,17.9
2019-03-13T05:24:32.929Z,17.9
2019-03-13T05:25:26.857Z,17.9
2019-03-13T05:26:13.199Z,17.8
2019-03-13T05:27:03.367Z,17.8
2019-03-13T05:27:52.634Z,17.8
2019-03-13T05:28:42.303Z,17.7
2019-03-13T05:29:33.337Z,17.8
2019-03-13T05:30:23.929Z,17.9
2019-03-13T05:31:13.659Z,18.1
2019-03-13T05:32:03.214Z,18.1
2019-03-13T05:32:53.813Z,18.2
2019-03-13T05:33:44.603Z,18.2
2019-03-13T05:34:33.814Z,18.3
2019-03-13T05:35:24.381Z,18.3
2019-03-13T05:36:18.026Z,18.3
2019-03-13T05:37:04.834Z,18.4
2019-03-13T05:37:53.501Z,18.4
2019-03-13T05:38:44.596Z,18.4
2019-03-13T05:39:35.115Z,18.4
2019-03-13T05:40:24.697Z,18.4
2019-03-13T05:41:14.801Z,18.5
2019-03-13T05:42:04.573Z,18.5
2019-03-13T05:42:53.589Z,18.5
2019-03-13T05:43:44.107Z,18.6
2019-03-13T05:44:34.113Z,18.5
2019-03-13T05:45:24.734Z,18.5
2019-03-13T05:46:14.350Z,18.6
2019-03-13T05:47:05.088Z,18.4
2019-03-13T05:47:55.450Z,18.2
2019-03-13T05:48:45.300Z,18.1
2019-03-13T05:49:35.307Z,18
2019-03-13T05:50:25.682Z,17.9
2019-03-13T05:51:15.511Z,17.9
2019-03-13T05:52:05.215Z,17.9
2019-03-13T05:52:54.958Z,17.9
2019-03-13T05:53:45.652Z,17.9
2019-03-13T05:54:35.362Z,17.9
2019-03-13T05:55:25.582Z,17.9
2019-03-13T05:56:15.192Z,18
2019-03-13T05:57:06.187Z,18
2019-03-13T05:57:55.165Z,18
2019-03-13T05:58:45.384Z,17.9
2019-03-13T05:59:35.974Z,17.9
2019-03-13T06:00:25.502Z,17.9
2019-03-13T06:01:16.412Z,17.9
2019-03-13T06:02:06.017Z,17.8
2019-03-13T06:02:57.654Z,17.8
2019-03-13T06:05:42.859Z,17.8
2019-03-13T06:06:32.904Z,17.9
2019-03-13T06:07:22.994Z,18.1
2019-03-13T06:08:13.290Z,18.2
2019-03-13T06:09:02.702Z,18.2
2019-03-13T06:09:53.446Z,18.2
2019-03-13T06:10:42.869Z,18.3
2019-03-13T06:11:32.944Z,18.3
2019-03-13T06:12:23.611Z,18.3
2019-03-13T06:13:13.094Z,18.4
2019-03-13T06:14:04.071Z,18.4
2019-03-13T06:14:53.771Z,18.3
2019-03-13T06:15:43.809Z,18.4
2019-03-13T06:16:33.636Z,18.4
2019-03-13T06:17:23.929Z,18.4
2019-03-13T06:18:17.628Z,18.4
2019-03-13T06:19:03.734Z,18.4
2019-03-13T06:19:53.741Z,18.4
2019-03-13T06:20:44.235Z,18.3
2019-03-13T06:21:34.438Z,18.3
2019-03-13T06:22:23.703Z,18.3
2019-03-13T06:23:14.269Z,18.2
2019-03-13T06:24:04.643Z,18.1
2019-03-13T06:24:53.559Z,18.1
2019-03-13T06:25:44.818Z,18.1
2019-03-13T06:26:33.687Z,18
2019-03-13T06:27:23.740Z,18.1
2019-03-13T06:28:14.411Z,18.1
2019-03-13T06:29:05.268Z,18.1
2019-03-13T06:29:55.026Z,18.1
2019-03-13T06:30:44.583Z,18.1
2019-03-13T06:31:34.962Z,18.1
2019-03-13T06:32:23.928Z,18.2
2019-03-13T06:33:14.008Z,18.2
2019-03-13T06:34:04.745Z,18.3
2019-03-13T06:34:54.807Z,18.3
2019-03-13T06:35:45.430Z,18.3
2019-03-13T06:36:35.508Z,18.4
2019-03-13T06:37:25.865Z,18.4
2019-03-13T06:38:15.057Z,18.1
2019-03-13T06:39:05.390Z,17.9
2019-03-13T06:39:55.550Z,17.8
2019-03-13T06:40:44.755Z,17.8
2019-03-13T06:41:36.227Z,17.8
2019-03-13T06:42:25.390Z,17.9
2019-03-13T06:43:14.882Z,17.9
2019-03-13T06:44:06.100Z,18
2019-03-13T06:44:55.614Z,18
2019-03-13T06:45:46.140Z,17.9
2019-03-13T06:46:35.377Z,17.9
2019-03-13T06:47:28.863Z,18
2019-03-13T06:48:15.564Z,18.1
2019-03-13T06:49:06.984Z,18
2019-03-13T06:49:56.429Z,18
2019-03-13T06:50:46.542Z,18
2019-03-13T06:51:36.900Z,18
2019-03-13T06:52:26.667Z,17.9
2019-03-13T06:53:16.599Z,18
2019-03-13T06:54:06.244Z,18.2
2019-03-13T06:54:55.972Z,18.3
2019-03-13T06:55:46.648Z,18.4
2019-03-13T06:56:36.937Z,18.5
2019-03-13T06:57:27.514Z,18.6
2019-03-13T06:58:15.338Z,18.6
2019-03-13T06:59:06.805Z,18.6
2019-03-13T06:59:56.574Z,18.6
2019-03-13T07:00:46.091Z,18.6
2019-03-13T07:02:26.746Z,18.8
2019-03-13T07:03:17.418Z,18.8
2019-03-13T07:05:42.466Z,18.9
2019-03-13T07:06:31.921Z,18.9
2019-03-13T07:07:22.363Z,18.8
2019-03-13T07:08:12.876Z,18.5
2019-03-13T07:09:03.029Z,18.3
2019-03-13T07:09:54.148Z,18.2
2019-03-13T07:10:42.333Z,18.1
2019-03-13T07:11:33.946Z,18.1
2019-03-13T07:12:23.295Z,18
2019-03-13T07:13:13.275Z,18
2019-03-13T07:14:03.302Z,18
2019-03-13T07:14:54.269Z,18
2019-03-13T07:15:45.728Z,18
2019-03-13T07:16:34.010Z,18.2
2019-03-13T07:17:24.063Z,18.2
2019-03-13T07:18:13.578Z,18.1
2019-03-13T07:19:04.170Z,18
2019-03-13T07:19:53.958Z,17.9
2019-03-13T07:20:44.137Z,17.9
2019-03-13T07:21:34.138Z,17.9
2019-03-13T07:22:24.823Z,17.9
2019-03-13T07:23:13.971Z,17.9
2019-03-13T07:24:03.879Z,17.8
2019-03-13T07:24:52.618Z,17.8
2019-03-13T07:25:44.103Z,17.8
2019-03-13T07:26:34.586Z,17.7
2019-03-13T07:27:24.773Z,17.8
2019-03-13T07:28:14.290Z,17.8
2019-03-13T07:29:19.042Z,17.7
2019-03-13T07:29:53.946Z,17.6
2019-03-13T07:30:43.955Z,17.6
2019-03-13T07:31:34.924Z,17.6
2019-03-13T07:32:23.627Z,17.6
2019-03-13T07:33:14.672Z,17.5
2019-03-13T07:34:04.207Z,17.4
2019-03-13T07:34:54.743Z,17.4
2019-03-13T07:35:44.562Z,17.3
2019-03-13T07:36:34.902Z,17.3
2019-03-13T07:37:25.494Z,17.3
2019-03-13T07:38:17.863Z,17.3
2019-03-13T07:39:05.601Z,17.3
2019-03-13T07:39:54.624Z,17.2
2019-03-13T07:40:45.769Z,17.1
2019-03-13T07:41:38.770Z,17.1
2019-03-13T07:42:25.916Z,17.1
2019-03-13T07:44:55.019Z,16.9
2019-03-13T07:45:46.359Z,16.9
2019-03-13T07:46:35.869Z,16.9
2019-03-13T07:47:25.729Z,16.9
2019-03-13T07:48:15.726Z,16.9
2019-03-13T07:49:05.498Z,16.9
2019-03-13T07:49:56.639Z,16.8
2019-03-13T07:50:46.016Z,16.8
2019-03-13T07:51:35.386Z,16.8
2019-03-13T07:52:26.846Z,16.8
2019-03-13T07:53:16.466Z,16.7
2019-03-13T07:54:06.384Z,16.7
2019-03-13T07:54:56.808Z,16.6
2019-03-13T07:55:46.249Z,16.6
2019-03-13T07:56:36.060Z,16.6
2019-03-13T07:57:26.656Z,16.6
2019-03-13T07:58:17.081Z,16.5
2019-03-13T07:59:07.341Z,16.4
2019-03-13T07:59:57.141Z,16.4
2019-03-13T08:00:45.791Z,16.4
2019-03-13T08:01:37.260Z,16.6
2019-03-13T08:02:26.026Z,16.6
2019-03-13T08:03:17.629Z,16.7
2019-03-13T08:04:11.178Z,16.8
2019-03-13T08:04:57.276Z,16.9
2019-03-13T08:05:47.252Z,16.9
2019-03-13T08:07:27.400Z,17.1
2019-03-13T08:08:17.153Z,17.1
2019-03-13T08:09:06.622Z,17.2
2019-03-13T08:09:57.285Z,17.3
2019-03-13T08:10:47.696Z,17.2
2019-03-13T08:12:27.192Z,16.9
2019-03-13T08:13:18.110Z,16.9
2019-03-13T08:14:07.703Z,16.9
2019-03-13T08:14:57.350Z,16.9
2019-03-13T08:15:48.541Z,16.9
2019-03-13T08:16:37.205Z,16.9
2019-03-13T08:17:27.544Z,16.9
2019-03-13T08:18:18.252Z,16.8
2019-03-13T08:19:08.270Z,16.9
2019-03-13T08:19:57.982Z,16.8
2019-03-13T08:20:48.349Z,16.8
2019-03-13T08:21:39.264Z,16.8
2019-03-13T08:22:28.454Z,16.8
2019-03-13T08:23:18.486Z,16.8
2019-03-13T08:24:09.196Z,16.8
2019-03-13T08:24:57.839Z,16.8
2019-03-13T08:25:49.490Z,16.7
2019-03-13T08:26:38.602Z,16.7
2019-03-13T08:27:29.151Z,16.7
2019-03-13T08:28:18.319Z,16.7
2019-03-13T08:29:09.193Z,16.7
2019-03-13T08:29:58.760Z,16.6
2019-03-13T08:30:49.211Z,16.6
2019-03-13T08:31:39.386Z,16.6
2019-03-13T08:32:28.889Z,16.6
2019-03-13T08:33:19.054Z,16.5
2019-03-13T08:34:09.068Z,16.4
2019-03-13T08:34:59.308Z,16.4
2019-03-13T08:35:48.946Z,16.4
2019-03-13T08:36:42.654Z,16.4
2019-03-13T08:37:29.613Z,16.4
2019-03-13T08:38:19.062Z,16.3
2019-03-13T08:39:08.569Z,16.3
2019-03-13T08:39:59.113Z,16.3
2019-03-13T08:40:48.921Z,16.3
2019-03-13T08:41:39.557Z,16.3
2019-03-13T08:42:29.946Z,16.4
2019-03-13T08:43:19.677Z,16.6
2019-03-13T08:44:10.352Z,16.6
2019-03-13T08:44:59.781Z,16.7
2019-03-13T08:45:50.636Z,16.8
2019-03-13T08:46:39.709Z,16.8
2019-03-13T08:47:29.769Z,16.8
2019-03-13T08:48:20.527Z,16.9
2019-03-13T08:50:01.039Z,17.1
2019-03-13T08:51:41.262Z,16.8
2019-03-13T08:52:31.255Z,16.8
2019-03-13T08:53:19.823Z,16.7
2019-03-13T08:54:11.088Z,16.8
2019-03-13T08:55:01.260Z,16.8
2019-03-13T08:55:50.783Z,16.8
2019-03-13T08:56:40.667Z,16.9
2019-03-13T08:57:31.020Z,16.9
2019-03-13T08:58:20.247Z,16.9
2019-03-13T08:59:11.090Z,16.9
2019-03-13T08:59:59.777Z,16.9
2019-03-13T09:00:50.450Z,16.9
2019-03-13T09:01:41.495Z,16.9
2019-03-13T09:02:31.620Z,16.9
2019-03-13T09:03:21.085Z,16.8
2019-03-13T09:04:12.337Z,16.8
2019-03-13T09:05:00.377Z,16.7
2019-03-13T09:05:49.749Z,16.6
2019-03-13T09:06:41.020Z,16.6
2019-03-13T09:07:30.764Z,16.6
2019-03-13T09:08:22.269Z,16.6
2019-03-13T09:09:11.332Z,16.5
2019-03-13T09:10:02.354Z,16.5
2019-03-13T09:10:51.879Z,16.4
2019-03-13T09:11:41.996Z,16.4
2019-03-13T09:12:32.541Z,16.4
2019-03-13T09:13:21.796Z,16.4
2019-03-13T09:14:12.209Z,16.3
2019-03-13T09:15:01.185Z,16.3
2019-03-13T09:15:52.204Z,16.3
2019-03-13T09:16:41.037Z,16.3
2019-03-13T09:17:31.659Z,16.3
2019-03-13T09:18:21.991Z,16.2
2019-03-13T09:19:12.473Z,16.2
2019-03-13T09:20:02.804Z,16.1
2019-03-13T09:20:52.277Z,16.1
2019-03-13T09:21:42.859Z,16.3
2019-03-13T09:22:33.321Z,16.3
2019-03-13T09:23:23.624Z,16.5
2019-03-13T09:24:12.599Z,16.6
2019-03-13T09:25:17.283Z,16.6
2019-03-13T09:25:51.641Z,16.8
2019-03-13T09:26:43.270Z,16.8
2019-03-13T09:27:32.017Z,16.8
2019-03-13T09:28:23.123Z,16.9
2019-03-13T09:29:13.128Z,16.9
2019-03-13T09:30:53.431Z,17.1
2019-03-13T09:31:43.471Z,16.8
2019-03-13T09:32:33.461Z,16.7
2019-03-13T09:33:23.503Z,16.7
2019-03-13T09:34:12.248Z,16.8
2019-03-13T09:35:03.107Z,16.8
2019-03-13T09:35:53.726Z,16.8
2019-03-13T09:36:43.270Z,16.8
2019-03-13T09:37:33.510Z,16.8
2019-03-13T09:38:23.387Z,16.8
2019-03-13T09:39:13.783Z,16.8
2019-03-13T09:40:03.275Z,16.8
2019-03-13T09:40:54.073Z,16.8
2019-03-13T09:41:43.964Z,16.8
2019-03-13T09:42:33.222Z,16.8
2019-03-13T09:43:23.839Z,16.8
2019-03-13T09:44:14.130Z,16.8
2019-03-13T09:45:04.723Z,16.8
2019-03-13T09:45:54.270Z,16.8
2019-03-13T09:46:43.753Z,16.8
2019-03-13T09:47:34.000Z,16.7
2019-03-13T09:48:23.320Z,16.7
2019-03-13T09:49:18.260Z,16.7
2019-03-13T09:50:04.425Z,16.6
2019-03-13T09:50:54.054Z,16.6
2019-03-13T09:51:43.724Z,16.5
2019-03-13T09:52:35.224Z,16.5
2019-03-13T09:53:24.647Z,16.5
2019-03-13T09:54:15.031Z,16.5
2019-03-13T09:55:08.497Z,16.5
2019-03-13T09:55:54.530Z,16.4
2019-03-13T09:56:44.669Z,16.4
2019-03-13T09:57:34.729Z,16.4
2019-03-13T09:58:24.977Z,16.3
2019-03-13T09:59:14.671Z,16.3
2019-03-13T10:00:05.416Z,16.3
2019-03-13T10:00:53.963Z,16.3
2019-03-13T10:01:45.541Z,16.3
2019-03-13T10:02:34.236Z,16.4
2019-03-13T10:03:24.814Z,16.6
2019-03-13T10:04:15.438Z,16.7
2019-03-13T10:06:42.083Z,16.8
2019-03-13T10:07:32.191Z,16.9
2019-03-13T10:09:13.088Z,17.1
2019-03-13T10:10:03.133Z,17.1
2019-03-13T10:10:53.418Z,17.2
2019-03-13T10:12:32.988Z,16.9
2019-03-13T10:13:22.614Z,16.8
2019-03-13T10:14:13.373Z,16.8
2019-03-13T10:15:04.003Z,16.8
2019-03-13T10:15:53.523Z,16.8
2019-03-13T10:16:43.568Z,16.9
2019-03-13T10:17:33.790Z,16.9
2019-03-13T10:18:23.393Z,16.9
2019-03-13T10:19:12.958Z,16.9
2019-03-13T10:20:03.832Z,16.9
2019-03-13T10:20:53.586Z,16.9
2019-03-13T10:21:43.609Z,16.8
2019-03-13T10:22:34.509Z,16.8
2019-03-13T10:23:22.160Z,16.8
2019-03-13T10:24:14.362Z,16.8
2019-03-13T10:25:04.089Z,16.8
2019-03-13T10:25:57.497Z,16.7
2019-03-13T10:26:44.829Z,16.6
2019-03-13T10:27:32.982Z,16.6
2019-03-13T10:28:24.943Z,16.6
2019-03-13T10:29:14.784Z,16.6
2019-03-13T10:30:04.413Z,16.7
2019-03-13T10:30:54.562Z,16.6
2019-03-13T10:31:59.105Z,16.6
2019-03-13T10:32:35.237Z,16.6
2019-03-13T10:33:25.049Z,16.6
2019-03-13T10:34:14.222Z,16.6
2019-03-13T10:35:05.298Z,16.5
2019-03-13T10:35:54.972Z,16.5
2019-03-13T10:36:45.237Z,16.4
2019-03-13T10:37:35.299Z,16.4
2019-03-13T10:38:25.752Z,16.4
2019-03-13T10:39:15.151Z,16.4
2019-03-13T10:40:05.862Z,16.3
2019-03-13T10:40:54.126Z,16.3
2019-03-13T10:41:45.610Z,16.3
2019-03-13T10:42:35.444Z,16.4
2019-03-13T10:43:25.762Z,16.6
2019-03-13T10:44:15.524Z,16.7
2019-03-13T10:45:05.848Z,16.8
2019-03-13T10:45:55.920Z,16.8
2019-03-13T10:46:45.809Z,16.9
2019-03-13T10:47:36.126Z,16.9
2019-03-13T10:49:16.098Z,17.1
2019-03-13T10:50:06.275Z,17.2
2019-03-13T10:50:55.976Z,17.2
2019-03-13T10:52:35.820Z,16.9
2019-03-13T10:53:26.760Z,16.8
2019-03-13T10:54:15.915Z,16.9
2019-03-13T10:55:06.682Z,16.9
2019-03-13T10:55:59.333Z,16.9
2019-03-13T10:56:45.951Z,16.9
2019-03-13T10:57:36.453Z,16.9
2019-03-13T11:00:56.888Z,17.1
2019-03-13T11:01:46.198Z,17.1
2019-03-13T11:02:36.549Z,17.1
2019-03-13T11:05:06.670Z,16.9
2019-03-13T11:05:56.269Z,16.9
2019-03-13T11:07:00.492Z,16.8
2019-03-13T11:07:38.575Z,16.8
2019-03-13T11:08:27.063Z,16.8
2019-03-13T11:09:18.123Z,16.8
2019-03-13T11:10:07.550Z,16.7
2019-03-13T11:10:56.671Z,16.7
2019-03-13T11:11:46.680Z,16.7
2019-03-13T11:12:37.012Z,16.7
2019-03-13T11:13:27.916Z,16.6
2019-03-13T11:14:25.337Z,16.6
2019-03-13T11:15:08.382Z,16.6
2019-03-13T11:15:58.033Z,16.6
2019-03-13T11:16:47.982Z,16.5
2019-03-13T11:17:37.922Z,16.5
2019-03-13T11:18:27.263Z,16.4
2019-03-13T11:19:17.202Z,16.4
2019-03-13T11:20:08.353Z,16.4
2019-03-13T11:20:58.134Z,16.3
2019-03-13T11:21:48.269Z,16.3
2019-03-13T11:22:38.509Z,16.3
2019-03-13T11:23:28.066Z,16.5
2019-03-13T11:24:17.889Z,16.6
2019-03-13T11:25:08.962Z,16.8
2019-03-13T11:25:58.316Z,16.9
2019-03-13T11:26:48.409Z,16.9
2019-03-13T11:27:39.229Z,16.9
2019-03-13T11:28:28.617Z,16.9
2019-03-13T11:29:19.409Z,17.1
2019-03-13T11:30:08.766Z,17.2
2019-03-13T11:30:59.521Z,17.3
2019-03-13T11:31:48.623Z,17.3
2019-03-13T11:32:39.606Z,17.1
2019-03-13T11:33:28.811Z,16.9
2019-03-13T11:34:19.124Z,16.9
2019-03-13T11:35:09.256Z,16.9
2019-03-13T11:35:58.371Z,16.9
2019-03-13T11:36:49.854Z,17.1